createdAt,value
2023-04-12T00:00:15.721Z,8.99
2023-04-12T00:05:22.867Z,8.93
2023-04-12T00:10:26.534Z,8.79
2023-04-12T00:15:29.774Z,8.79
2023-04-12T00:20:34.179Z,8.74
2023-04-12T00:25:38.629Z,8.72
2023-04-12T00:30:41.976Z,8.70
2023-04-12T00:35:46.751Z,8.68
2023-04-12T00:40:51.536Z,8.70
2023-04-12T00:45:56.702Z,8.68
2023-04-12T00:51:04.905Z,8.69
2023-04-12T00:56:12.044Z,8.71
2023-04-12T01:01:17.374Z,8.69
2023-04-12T01:06:51.914Z,8.63
2023-04-12T01:12:17.378Z,8.67
2023-04-12T01:17:25.094Z,8.60
2023-04-12T01:22:46.449Z,8.56
2023-04-12T01:27:54.193Z,8.50
2023-04-12T01:33:00.905Z,8.54
2023-04-12T01:38:05.457Z,8.57
2023-04-12T01:43:11.942Z,8.30
2023-04-12T01:48:14.829Z,8.51
2023-04-12T01:53:24.079Z,8.55
2023-04-12T01:58:31.145Z,8.44
2023-04-12T02:03:34.930Z,8.51
2023-04-12T02:08:38.527Z,8.41
2023-04-12T02:13:42.828Z,8.37
2023-04-12T02:18:45.799Z,8.33
2023-04-12T02:23:53.183Z,8.33
2023-04-12T02:28:58.256Z,8.34
2023-04-12T02:34:01.774Z,8.32
2023-04-12T02:39:05.999Z,8.30
2023-04-12T02:44:12.409Z,8.28
2023-04-12T02:49:20.473Z,8.29
2023-04-12T02:54:24.651Z,8.29
2023-04-12T02:59:32.269Z,8.21
2023-04-12T03:04:47.035Z,8.29
2023-04-12T03:09:55.519Z,8.29
2023-04-12T03:15:02.029Z,8.29
2023-04-12T03:20:10.291Z,8.28
2023-04-12T03:25:18.075Z,8.26
2023-04-12T03:30:28.832Z,8.26
2023-04-12T03:35:33.744Z,8.25
2023-04-12T03:40:38.100Z,8.25
2023-04-12T03:45:44.101Z,8.24
2023-04-12T03:50:48.553Z,8.18
2023-04-12T03:55:57.130Z,8.22
2023-04-12T04:01:07.349Z,8.18
2023-04-12T04:06:12.839Z,8.23
2023-04-12T04:11:16.715Z,8.23
2023-04-12T04:16:27.070Z,8.24
2023-04-12T04:21:32.199Z,8.24
2023-04-12T04:26:38.438Z,8.18
2023-04-12T04:31:49.595Z,8.24
2023-04-12T04:36:53.661Z,8.27
2023-04-12T04:42:00.460Z,8.30
2023-04-12T04:47:15.570Z,8.29
2023-04-12T04:52:19.673Z,8.33
2023-04-12T04:57:24.745Z,8.34
2023-04-12T05:02:31.774Z,8.28
2023-04-12T05:07:36.403Z,8.37
2023-04-12T05:12:40.320Z,8.37
2023-04-12T05:17:45.202Z,8.32
2023-04-12T05:22:50.610Z,8.38
2023-04-12T05:27:53.984Z,8.40
2023-04-12T05:32:58.737Z,8.40
2023-04-12T05:38:03.836Z,8.40
2023-04-12T05:43:07.491Z,8.33
2023-04-12T05:48:12.020Z,8.47
2023-04-12T05:53:15.760Z,8.47
2023-04-12T05:58:19.027Z,8.53
2023-04-12T06:03:25.767Z,8.59
2023-04-12T06:08:36.130Z,8.68
2023-04-12T06:13:40.153Z,8.75
2023-04-12T06:18:45.115Z,8.84
2023-04-12T06:23:50.323Z,8.96
2023-04-12T06:28:54.536Z,8.97
2023-04-12T06:33:59.001Z,8.99
2023-04-12T06:39:03.228Z,9.18
2023-04-12T06:44:06.325Z,9.39
2023-04-12T06:49:10.976Z,9.30
2023-04-12T06:54:15.114Z,9.53
2023-04-12T06:59:18.378Z,9.83
2023-04-12T07:04:22.876Z,9.87
2023-04-12T07:09:26.616Z,9.81
2023-04-12T07:14:29.787Z,9.99
2023-04-12T07:19:34.300Z,10.01
2023-04-12T07:24:37.425Z,10.03
2023-04-12T07:29:40.563Z,10.18
2023-04-12T07:34:44.917Z,10.33
2023-04-12T07:39:48.102Z,10.25
2023-04-12T07:44:51.448Z,10.41
2023-04-12T07:49:57.671Z,10.60
2023-04-12T07:55:00.845Z,11.18
2023-04-12T08:00:05.922Z,12.16
2023-04-12T08:05:17.645Z,12.55
2023-04-12T08:10:21.035Z,12.65
2023-04-12T08:15:24.295Z,12.54
2023-04-12T08:20:29.222Z,12.40
2023-04-12T08:25:32.393Z,12.31
2023-04-12T08:30:35.931Z,12.15
2023-04-12T08:35:41.366Z,11.98
2023-04-12T08:40:46.543Z,12.11
2023-04-12T08:45:51.101Z,12.47
2023-04-12T08:50:57.490Z,13.35
2023-04-12T08:56:00.693Z,13.48
2023-04-12T09:01:04.396Z,12.88
2023-04-12T09:06:09.999Z,12.44
2023-04-12T09:11:24.478Z,12.00
2023-04-12T09:16:38.291Z,11.76
2023-04-12T09:21:54.173Z,11.96
2023-04-12T09:27:04.904Z,12.36
2023-04-12T09:32:09.577Z,12.98
2023-04-12T09:37:17.873Z,13.73
2023-04-12T09:47:39.626Z,13.73
2023-04-12T09:52:44.659Z,14.04
2023-04-12T09:57:50.796Z,14.59
2023-04-12T10:02:55.939Z,14.78
2023-04-12T10:08:01.351Z,14.69
2023-04-12T10:13:07.730Z,14.71
2023-04-12T10:18:12.810Z,14.68
2023-04-12T10:23:17.968Z,14.74
2023-04-12T10:28:23.078Z,14.71
2023-04-12T10:33:32.724Z,14.90
2023-04-12T10:38:48.868Z,15.45
2023-04-12T10:44:27.182Z,15.92
2023-04-12T10:49:30.626Z,16.88
2023-04-12T10:54:36.683Z,16.61
2023-04-12T10:59:52.808Z,15.81
2023-04-12T11:05:08.749Z,16.29
2023-04-12T11:10:33.186Z,16.40
2023-04-12T11:15:36.738Z,16.09
2023-04-12T11:20:41.093Z,16.00
2023-04-12T11:25:50.938Z,15.90
2023-04-12T11:30:54.750Z,16.24
2023-04-12T11:35:57.930Z,16.76
2023-04-12T11:41:02.491Z,16.63
2023-04-12T11:46:06.717Z,16.39
2023-04-12T11:51:31.653Z,16.19
2023-04-12T11:56:37.295Z,15.92
2023-04-12T12:01:40.439Z,15.26
2023-04-12T12:06:44.069Z,15.29
2023-04-12T12:11:51.787Z,15.14
2023-04-12T12:16:56.998Z,14.80
2023-04-12T12:22:15.976Z,14.98
2023-04-12T12:27:22.056Z,14.15
2023-04-12T12:32:25.852Z,14.17
2023-04-12T12:37:30.247Z,14.81
2023-04-12T12:42:35.984Z,14.06
2023-04-12T12:47:50.979Z,13.73
2023-04-12T12:52:55.747Z,13.34
2023-04-12T12:58:07.975Z,13.82
2023-04-12T13:03:12.014Z,14.10
2023-04-12T13:08:15.518Z,13.97
2023-04-12T13:13:21.011Z,13.78
2023-04-12T13:18:24.017Z,14.47
2023-04-12T13:23:27.358Z,14.77
2023-04-12T13:28:32.173Z,14.69
2023-04-12T13:33:35.556Z,14.60
2023-04-12T13:38:38.624Z,14.52
2023-04-12T13:43:43.414Z,14.29
2023-04-12T13:48:46.484Z,14.40
2023-04-12T13:53:52.384Z,14.05
2023-04-12T13:58:59.237Z,13.81
2023-04-12T14:04:02.964Z,13.56
2023-04-12T14:09:07.107Z,13.57
2023-04-12T14:14:11.721Z,12.73
2023-04-12T14:19:14.961Z,11.75
2023-04-12T14:24:19.287Z,11.49
2023-04-12T14:29:23.820Z,11.53
2023-04-12T14:34:27.030Z,11.53
2023-04-12T14:39:31.023Z,11.53
2023-04-12T14:44:35.466Z,11.78
2023-04-12T14:49:38.637Z,12.45
2023-04-12T14:54:41.760Z,12.66
2023-04-12T14:59:46.555Z,13.08
2023-04-12T15:04:51.220Z,13.45
2023-04-12T15:09:55.458Z,13.48
2023-04-12T15:15:00.214Z,13.69
2023-04-12T15:20:09.253Z,14.14
2023-04-12T15:25:12.759Z,14.90
2023-04-12T15:30:18.076Z,14.66
2023-04-12T15:35:27.005Z,15.10
2023-04-12T15:40:30.687Z,15.15
2023-04-12T15:45:35.552Z,14.71
2023-04-12T15:50:39.079Z,14.62
2023-04-12T15:55:45.389Z,14.50
2023-04-12T16:01:00.744Z,14.59
2023-04-12T16:06:06.035Z,14.47
2023-04-12T16:11:12.214Z,14.50
2023-04-12T16:16:18.582Z,14.33
2023-04-12T16:21:23.434Z,14.22
2023-04-12T16:26:27.281Z,14.10
2023-04-12T16:31:32.130Z,14.15
2023-04-12T16:36:35.763Z,14.45
2023-04-12T16:41:38.925Z,13.88
2023-04-12T16:46:45.454Z,13.70
2023-04-12T16:51:48.620Z,13.57
2023-04-12T16:56:51.729Z,13.43
2023-04-12T17:01:56.114Z,13.53
2023-04-12T17:06:59.198Z,13.45
2023-04-12T17:12:02.438Z,13.04
2023-04-12T17:17:07.456Z,12.82
2023-04-12T17:22:10.928Z,12.77
2023-04-12T17:27:14.305Z,12.76
2023-04-12T17:32:19.053Z,12.86
2023-04-12T17:37:23.014Z,13.23
2023-04-12T17:42:29.390Z,13.12
2023-04-12T17:47:37.629Z,12.62
2023-04-12T17:52:41.241Z,12.36
2023-04-12T17:57:44.652Z,12.09
2023-04-12T18:02:52.848Z,11.89
2023-04-12T18:07:57.103Z,11.72
2023-04-12T18:13:00.330Z,11.45
2023-04-12T18:18:05.358Z,11.23
2023-04-12T18:23:08.618Z,10.99
2023-04-12T18:28:19.036Z,10.79
2023-04-12T18:33:24.221Z,10.61
2023-04-12T18:38:32.484Z,10.36
2023-04-12T18:43:35.687Z,10.23
2023-04-12T18:48:41.660Z,10.07
2023-04-12T18:53:44.696Z,9.86
2023-04-12T18:58:55.032Z,9.75
2023-04-12T19:04:04.375Z,9.61
2023-04-12T19:09:08.929Z,9.49
2023-04-12T19:14:12.163Z,9.39
2023-04-12T19:19:16.852Z,9.32
2023-04-12T19:24:20.314Z,9.08
2023-04-12T19:29:24.401Z,9.03
2023-04-12T19:34:29.145Z,8.92
2023-04-12T19:39:33.523Z,8.89
2023-04-12T19:44:38.308Z,8.77
2023-04-12T19:49:44.876Z,8.64
2023-04-12T19:54:48.499Z,8.54
2023-04-12T19:59:52.314Z,8.43
2023-04-12T20:04:57.065Z,8.34
2023-04-12T20:10:00.668Z,8.21
2023-04-12T20:15:04.545Z,8.21
2023-04-12T20:20:12.847Z,8.00
2023-04-12T20:25:16.615Z,8.06
2023-04-12T20:30:26.254Z,7.98
2023-04-12T20:35:31.020Z,7.83
2023-04-12T20:40:36.052Z,7.87
2023-04-12T20:45:39.464Z,7.79
2023-04-12T20:50:44.115Z,7.73
2023-04-12T20:55:54.951Z,7.68
2023-04-12T21:00:58.890Z,7.60
2023-04-12T21:06:03.937Z,7.70
2023-04-12T21:11:07.379Z,7.79
2023-04-12T21:16:16.224Z,7.89
2023-04-12T21:21:20.994Z,7.90
2023-04-12T21:26:24.414Z,8.00
2023-04-12T21:31:29.216Z,8.03
2023-04-12T21:36:34.235Z,8.08
2023-04-12T21:41:37.508Z,8.12
2023-04-12T21:46:40.677Z,8.24
2023-04-12T21:51:46.182Z,8.19
2023-04-12T21:56:51.752Z,8.20
2023-04-12T22:01:54.882Z,8.06
2023-04-12T22:07:02.206Z,7.85
2023-04-12T22:12:06.705Z,7.63
2023-04-12T22:17:09.977Z,7.43
2023-04-12T22:22:16.394Z,7.18
2023-04-12T22:27:19.486Z,7.07
2023-04-12T22:32:22.765Z,6.97
2023-04-12T22:37:27.793Z,6.85
2023-04-12T22:42:31.140Z,6.76
2023-04-12T22:47:34.670Z,6.81
2023-04-12T22:52:39.839Z,6.78
2023-04-12T22:57:43.594Z,6.77
2023-04-12T23:02:48.750Z,6.71
2023-04-12T23:07:53.402Z,6.93
2023-04-12T23:12:56.430Z,7.00
2023-04-12T23:18:01.805Z,7.05
2023-04-12T23:23:06.390Z,7.03
2023-04-12T23:28:13.271Z,7.03
2023-04-12T23:33:18.354Z,7.07
2023-04-12T23:38:32.034Z,7.01
2023-04-12T23:43:35.910Z,6.91
2023-04-12T23:48:39.195Z,6.98
2023-04-12T23:53:43.641Z,6.89
2023-04-12T23:58:47.210Z,6.87
